createdAt,value
2018-06-16T00:00:11.767Z,0
2018-06-16T00:00:52.335Z,0
2018-06-16T00:01:32.905Z,0
2018-06-16T00:02:13.477Z,0
2018-06-16T00:02:54.049Z,0
2018-06-16T00:03:34.619Z,0
2018-06-16T00:04:15.192Z,0
2018-06-16T00:04:55.747Z,0
2018-06-16T00:05:36.308Z,0
2018-06-16T00:06:16.911Z,0
2018-06-16T00:06:57.515Z,0
2018-06-16T00:07:38.052Z,0
2018-06-16T00:08:18.634Z,0
2018-06-16T00:08:59.208Z,0
2018-06-16T00:09:39.781Z,0
2018-06-16T00:10:20.334Z,0
2018-06-16T00:11:00.903Z,0
2018-06-16T00:11:41.600Z,0
2018-06-16T00:12:22.171Z,0
2018-06-16T00:13:02.742Z,0
2018-06-16T00:13:43.366Z,0
2018-06-16T00:14:23.861Z,0
2018-06-16T00:15:04.435Z,0
2018-06-16T00:15:45.001Z,0
2018-06-16T00:16:25.551Z,0
2018-06-16T00:17:06.117Z,0
2018-06-16T00:17:46.676Z,0
2018-06-16T00:18:27.255Z,0
2018-06-16T00:19:07.823Z,0
2018-06-16T00:19:48.398Z,0
2018-06-16T00:20:28.951Z,0
2018-06-16T00:21:09.531Z,0
2018-06-16T00:21:50.106Z,0
2018-06-16T00:22:30.685Z,0
2018-06-16T00:23:11.248Z,0
2018-06-16T00:23:51.816Z,0
2018-06-16T00:24:32.375Z,0
2018-06-16T00:25:12.939Z,0
2018-06-16T00:25:53.515Z,0
2018-06-16T00:26:34.071Z,0
2018-06-16T00:27:14.654Z,0
2018-06-16T00:27:55.193Z,0
2018-06-16T00:28:35.768Z,0
2018-06-16T00:29:16.307Z,0
2018-06-16T00:29:56.873Z,0
2018-06-16T00:30:37.484Z,0
2018-06-16T00:31:18.010Z,0
2018-06-16T00:31:58.755Z,0
2018-06-16T00:32:39.320Z,0
2018-06-16T00:33:19.887Z,0
2018-06-16T00:34:00.458Z,0
2018-06-16T00:34:41.024Z,0
2018-06-16T00:35:21.580Z,0
2018-06-16T00:36:02.153Z,0
2018-06-16T00:36:42.725Z,0
2018-06-16T00:37:23.291Z,0
2018-06-16T00:38:03.861Z,0
2018-06-16T00:38:44.421Z,0
2018-06-16T00:39:24.987Z,0
2018-06-16T00:40:05.554Z,0
2018-06-16T00:40:46.149Z,0
2018-06-16T00:41:26.710Z,0
2018-06-16T00:42:07.275Z,0
2018-06-16T00:42:47.840Z,0
2018-06-16T00:43:28.412Z,0
2018-06-16T00:44:08.971Z,0
2018-06-16T00:44:49.565Z,0
2018-06-16T00:45:30.127Z,0
2018-06-16T00:46:10.676Z,0
2018-06-16T00:46:51.245Z,0
2018-06-16T00:47:31.781Z,0
2018-06-16T00:48:12.344Z,0
2018-06-16T00:48:52.922Z,0
2018-06-16T00:49:33.487Z,0
2018-06-16T00:50:14.065Z,0
2018-06-16T00:50:54.638Z,0
2018-06-16T00:51:35.229Z,0
2018-06-16T00:52:15.806Z,0
2018-06-16T00:52:56.432Z,0
2018-06-16T00:53:36.931Z,0
2018-06-16T00:54:17.483Z,0
2018-06-16T00:54:58.039Z,0
2018-06-16T00:55:38.606Z,0
2018-06-16T00:56:19.160Z,0
2018-06-16T00:56:59.708Z,0
2018-06-16T00:57:40.271Z,0
2018-06-16T00:58:20.836Z,0
2018-06-16T00:59:01.394Z,0
2018-06-16T00:59:41.964Z,0
2018-06-16T01:00:22.532Z,0
2018-06-16T01:01:03.097Z,0
2018-06-16T01:01:43.677Z,0
2018-06-16T01:02:24.218Z,0
2018-06-16T01:03:04.781Z,0
2018-06-16T01:03:45.323Z,0
2018-06-16T01:04:25.876Z,0
2018-06-16T01:05:06.444Z,0
2018-06-16T01:05:47.016Z,0
2018-06-16T01:06:27.590Z,0
2018-06-16T01:07:08.173Z,0
2018-06-16T01:07:48.758Z,0
2018-06-16T01:08:29.337Z,0
2018-06-16T01:09:09.895Z,0
2018-06-16T01:09:50.475Z,0
2018-06-16T01:10:31.029Z,0
2018-06-16T01:11:11.578Z,0
2018-06-16T01:11:52.159Z,0
2018-06-16T01:12:32.726Z,0
2018-06-16T01:13:13.286Z,0
2018-06-16T01:13:53.848Z,0
2018-06-16T01:14:34.425Z,0
2018-06-16T01:15:14.987Z,0
2018-06-16T01:15:55.525Z,0
2018-06-16T01:16:36.089Z,0
2018-06-16T01:17:16.641Z,0
2018-06-16T01:17:57.190Z,0
2018-06-16T01:18:37.755Z,0
2018-06-16T01:19:18.320Z,0
2018-06-16T01:19:58.893Z,0
2018-06-16T01:20:39.448Z,0
2018-06-16T01:21:20.020Z,0
2018-06-16T01:22:00.598Z,0
2018-06-16T01:22:41.146Z,0
2018-06-16T01:23:21.697Z,0
2018-06-16T01:24:02.271Z,0
2018-06-16T01:24:42.841Z,0
2018-06-16T01:25:23.423Z,0
2018-06-16T01:26:03.982Z,0
2018-06-16T01:26:44.550Z,0
2018-06-16T01:27:25.102Z,0
2018-06-16T01:28:05.679Z,0
2018-06-16T01:28:46.248Z,0
2018-06-16T01:29:26.805Z,0
2018-06-16T01:30:07.372Z,0
2018-06-16T01:30:47.943Z,0
2018-06-16T01:31:28.505Z,0
2018-06-16T01:32:09.064Z,0
2018-06-16T01:32:49.614Z,0
2018-06-16T01:33:30.179Z,0
2018-06-16T01:34:10.743Z,0
2018-06-16T01:34:51.311Z,0
2018-06-16T01:35:31.888Z,0
2018-06-16T01:36:12.503Z,0
2018-06-16T01:36:53.078Z,0
2018-06-16T01:37:33.644Z,0
2018-06-16T01:38:14.289Z,0
2018-06-16T01:38:54.838Z,0
2018-06-16T01:39:35.482Z,0
2018-06-16T01:40:16.051Z,0
2018-06-16T01:40:56.620Z,0
2018-06-16T01:41:37.185Z,0
2018-06-16T01:42:17.750Z,0
2018-06-16T01:42:58.353Z,0
2018-06-16T01:43:38.919Z,0
2018-06-16T01:44:19.477Z,0
2018-06-16T01:45:00.157Z,0
2018-06-16T01:45:40.610Z,0
2018-06-16T01:46:21.196Z,0
2018-06-16T01:47:01.762Z,0
2018-06-16T01:47:42.333Z,0
2018-06-16T01:48:22.911Z,0
2018-06-16T01:49:03.479Z,0
2018-06-16T01:49:44.041Z,0
2018-06-16T01:50:24.610Z,0
2018-06-16T01:51:05.183Z,0
2018-06-16T01:51:45.741Z,0
2018-06-16T01:52:26.303Z,0
2018-06-16T01:53:06.846Z,0
2018-06-16T01:53:47.417Z,0
2018-06-16T01:54:27.985Z,0
2018-06-16T01:55:08.550Z,0
2018-06-16T01:55:49.123Z,0
2018-06-16T01:56:29.690Z,0
2018-06-16T01:57:10.257Z,0
2018-06-16T01:57:50.849Z,0
2018-06-16T01:58:31.423Z,0
2018-06-16T01:59:12.029Z,0
2018-06-16T01:59:52.604Z,0
2018-06-16T02:00:33.171Z,0
2018-06-16T02:01:13.738Z,0
2018-06-16T02:01:54.316Z,0
2018-06-16T02:02:34.870Z,0
2018-06-16T02:03:15.406Z,0
2018-06-16T02:03:55.973Z,0
2018-06-16T02:04:36.536Z,0
2018-06-16T02:05:17.108Z,4
2018-06-16T02:05:57.679Z,4
2018-06-16T02:06:38.250Z,4
2018-06-16T02:07:18.806Z,0
2018-06-16T02:07:59.431Z,0
2018-06-16T02:08:39.992Z,0
2018-06-16T02:09:20.547Z,4
2018-06-16T02:10:01.114Z,4
2018-06-16T02:10:41.670Z,4
2018-06-16T02:11:22.238Z,4
2018-06-16T02:12:02.815Z,0
2018-06-16T02:12:43.379Z,4
2018-06-16T02:13:23.954Z,4
2018-06-16T02:14:04.521Z,4
2018-06-16T02:14:45.096Z,4
2018-06-16T02:15:25.657Z,4
2018-06-16T02:16:06.220Z,4
2018-06-16T02:16:46.787Z,8
2018-06-16T02:17:27.347Z,4
2018-06-16T02:18:07.900Z,4
2018-06-16T02:18:48.471Z,8
2018-06-16T02:19:29.034Z,8
2018-06-16T02:20:09.594Z,8
2018-06-16T02:20:50.165Z,8
2018-06-16T02:21:30.732Z,12
2018-06-16T02:22:11.291Z,8
2018-06-16T02:22:51.887Z,12
2018-06-16T02:23:32.437Z,8
2018-06-16T02:24:13.031Z,12
2018-06-16T02:24:53.590Z,12
2018-06-16T02:25:34.149Z,12
2018-06-16T02:26:14.719Z,16
2018-06-16T02:26:55.281Z,12
2018-06-16T02:27:35.858Z,12
2018-06-16T02:28:16.419Z,16
2018-06-16T02:28:56.972Z,16
2018-06-16T02:29:37.545Z,16
2018-06-16T02:30:18.116Z,16
2018-06-16T02:30:58.677Z,16
2018-06-16T02:31:39.251Z,20
2018-06-16T02:32:19.802Z,16
2018-06-16T02:33:00.364Z,20
2018-06-16T02:33:40.948Z,20
2018-06-16T02:34:21.516Z,20
2018-06-16T02:35:02.081Z,20
2018-06-16T02:35:42.645Z,20
2018-06-16T02:36:23.263Z,24
2018-06-16T02:37:03.800Z,24
2018-06-16T02:37:44.353Z,28
2018-06-16T02:38:24.926Z,24
2018-06-16T02:39:05.496Z,28
2018-06-16T02:39:46.063Z,28
2018-06-16T02:40:26.642Z,32
2018-06-16T02:41:07.210Z,32
2018-06-16T02:41:47.783Z,32
2018-06-16T02:42:28.354Z,36
2018-06-16T02:43:08.915Z,36
2018-06-16T02:43:49.485Z,36
2018-06-16T02:44:30.050Z,40
2018-06-16T02:45:10.625Z,40
2018-06-16T02:45:51.192Z,44
2018-06-16T02:46:31.769Z,44
2018-06-16T02:47:12.322Z,44
2018-06-16T02:47:52.885Z,48
2018-06-16T02:48:33.445Z,52
2018-06-16T02:49:14.010Z,52
2018-06-16T02:49:54.568Z,56
2018-06-16T02:50:35.232Z,56
2018-06-16T02:51:15.697Z,60
2018-06-16T02:51:56.303Z,60
2018-06-16T02:52:36.874Z,64
2018-06-16T02:53:17.496Z,64
2018-06-16T02:53:58.059Z,68
2018-06-16T02:54:38.580Z,72
2018-06-16T02:55:19.138Z,72
2018-06-16T02:55:59.714Z,76
2018-06-16T02:56:40.287Z,76
2018-06-16T02:57:20.857Z,80
2018-06-16T02:58:01.456Z,84
2018-06-16T02:58:42.010Z,84
2018-06-16T02:59:22.579Z,88
2018-06-16T03:00:03.142Z,92
2018-06-16T03:00:43.705Z,92
2018-06-16T03:01:24.272Z,96
2018-06-16T03:02:04.834Z,96
2018-06-16T03:02:45.396Z,100
2018-06-16T03:03:26.055Z,100
2018-06-16T03:04:06.518Z,108
2018-06-16T03:04:47.087Z,108
2018-06-16T03:05:27.660Z,108
2018-06-16T03:06:08.216Z,112
2018-06-16T03:06:48.768Z,116
2018-06-16T03:07:29.335Z,116
2018-06-16T03:08:09.905Z,120
2018-06-16T03:08:50.472Z,124
2018-06-16T03:09:31.043Z,128
2018-06-16T03:10:11.624Z,132
2018-06-16T03:10:52.188Z,136
2018-06-16T03:11:32.758Z,140
2018-06-16T03:12:13.317Z,148
2018-06-16T03:12:53.884Z,152
2018-06-16T03:13:34.452Z,156
2018-06-16T03:14:15.020Z,164
2018-06-16T03:14:55.589Z,168
2018-06-16T03:15:36.162Z,172
2018-06-16T03:16:16.728Z,180
2018-06-16T03:16:57.298Z,180
2018-06-16T03:17:37.872Z,188
2018-06-16T03:18:18.436Z,192
2018-06-16T03:18:58.988Z,196
2018-06-16T03:19:39.549Z,200
2018-06-16T03:20:20.115Z,204
2018-06-16T03:21:00.670Z,212
2018-06-16T03:21:41.222Z,216
2018-06-16T03:22:21.783Z,220
2018-06-16T03:23:02.351Z,224
2018-06-16T03:23:42.944Z,228
2018-06-16T03:24:23.507Z,236
2018-06-16T03:25:04.060Z,240
2018-06-16T03:25:44.603Z,244
2018-06-16T03:26:25.181Z,248
2018-06-16T03:27:05.800Z,252
2018-06-16T03:27:46.334Z,256
2018-06-16T03:28:26.902Z,268
2018-06-16T03:29:07.463Z,276
2018-06-16T03:29:48.035Z,284
2018-06-16T03:30:28.591Z,296
2018-06-16T03:31:09.134Z,308
2018-06-16T03:31:49.757Z,316
2018-06-16T03:32:30.269Z,328
2018-06-16T03:33:10.840Z,340
2018-06-16T03:33:51.404Z,348
2018-06-16T03:34:31.974Z,356
2018-06-16T03:35:12.534Z,360
2018-06-16T03:35:53.087Z,368
2018-06-16T03:36:33.680Z,376
2018-06-16T03:37:14.258Z,376
2018-06-16T03:37:54.829Z,380
2018-06-16T03:38:35.385Z,388
2018-06-16T03:39:15.953Z,388
2018-06-16T03:39:56.496Z,396
2018-06-16T03:40:37.055Z,400
2018-06-16T03:41:17.636Z,408
2018-06-16T03:41:58.202Z,408
2018-06-16T03:42:38.770Z,412
2018-06-16T03:43:19.322Z,412
2018-06-16T03:44:04.455Z,416
2018-06-16T03:47:59.968Z,448
2018-06-16T03:48:40.536Z,456
2018-06-16T03:49:21.090Z,464
2018-06-16T03:50:01.660Z,468
2018-06-16T03:50:42.226Z,480
2018-06-16T03:51:22.774Z,488
2018-06-16T03:52:03.327Z,496
2018-06-16T03:52:43.873Z,512
2018-06-16T03:53:24.489Z,520
2018-06-16T03:54:05.061Z,532
2018-06-16T03:54:45.610Z,540
2018-06-16T03:55:26.170Z,552
2018-06-16T03:56:06.727Z,564
2018-06-16T03:56:47.301Z,576
2018-06-16T03:57:27.846Z,584
2018-06-16T03:58:08.390Z,592
2018-06-16T03:58:48.945Z,596
2018-06-16T03:59:30.461Z,604
2018-06-16T04:00:12.173Z,612
2018-06-16T04:00:52.732Z,632
2018-06-16T04:01:33.299Z,644
2018-06-16T04:02:13.837Z,656
2018-06-16T04:02:54.503Z,672
2018-06-16T04:03:35.055Z,688
2018-06-16T04:04:15.611Z,704
2018-06-16T04:04:56.151Z,708
2018-06-16T04:05:36.701Z,712
2018-06-16T04:06:17.252Z,716
2018-06-16T04:06:57.807Z,720
2018-06-16T04:07:38.371Z,724
2018-06-16T04:08:18.934Z,736
2018-06-16T04:08:59.484Z,748
2018-06-16T04:09:40.062Z,760
2018-06-16T04:10:20.620Z,768
2018-06-16T04:11:01.176Z,776
2018-06-16T04:11:41.763Z,780
2018-06-16T04:12:22.338Z,788
2018-06-16T04:13:02.924Z,796
2018-06-16T04:13:43.486Z,796
2018-06-16T04:14:24.067Z,804
2018-06-16T04:15:04.614Z,812
2018-06-16T04:15:45.161Z,824
2018-06-16T04:16:25.744Z,844
2018-06-16T04:17:06.319Z,868
2018-06-16T04:17:46.880Z,896
2018-06-16T04:18:27.448Z,928
2018-06-16T04:19:08.021Z,952
2018-06-16T04:19:48.577Z,980
2018-06-16T04:20:29.140Z,1000
2018-06-16T04:21:09.714Z,1008
2018-06-16T04:21:50.274Z,1020
2018-06-16T04:22:30.855Z,1036
2018-06-16T04:23:11.399Z,1044
2018-06-16T04:23:51.952Z,1056
2018-06-16T04:24:32.518Z,1068
2018-06-16T04:25:13.073Z,1080
2018-06-16T04:25:53.627Z,1096
2018-06-16T04:26:34.193Z,1116
2018-06-16T04:27:14.757Z,1136
2018-06-16T04:27:55.337Z,1160
2018-06-16T04:28:35.898Z,1176
2018-06-16T04:29:16.456Z,1196
2018-06-16T04:31:29.279Z,1248
2018-06-16T04:32:09.824Z,1268
2018-06-16T04:32:50.373Z,1288
2018-06-16T04:33:30.921Z,1312
2018-06-16T04:34:11.462Z,1340
2018-06-16T04:34:52.073Z,1364
2018-06-16T04:35:32.574Z,1384
2018-06-16T04:36:13.130Z,1408
2018-06-16T04:36:53.671Z,1428
2018-06-16T04:37:34.219Z,1448
2018-06-16T04:38:14.785Z,1456
2018-06-16T04:38:55.323Z,1472
2018-06-16T04:39:35.879Z,1488
2018-06-16T04:40:16.436Z,1512
2018-06-16T04:40:57.000Z,1536
2018-06-16T04:41:37.540Z,1564
2018-06-16T04:42:18.105Z,1596
2018-06-16T04:42:58.655Z,1624
2018-06-16T04:43:39.229Z,1644
2018-06-16T04:44:19.784Z,1660
2018-06-16T04:45:00.340Z,1672
2018-06-16T04:45:41.105Z,1684
2018-06-16T04:46:21.494Z,1704
2018-06-16T04:47:02.090Z,1728
2018-06-16T04:47:42.659Z,1756
2018-06-16T04:48:23.220Z,1788
2018-06-16T04:49:03.802Z,1812
2018-06-16T04:49:44.380Z,1832
2018-06-16T04:50:24.921Z,1848
2018-06-16T04:51:05.486Z,1864
2018-06-16T04:51:46.058Z,1892
2018-06-16T04:52:26.622Z,1924
2018-06-16T04:53:07.188Z,1968
2018-06-16T04:53:47.756Z,2028
2018-06-16T04:54:28.321Z,2088
2018-06-16T04:55:08.895Z,2152
2018-06-16T04:55:49.476Z,2216
2018-06-16T04:56:30.032Z,2280
2018-06-16T04:57:10.575Z,2360
2018-06-16T04:57:51.136Z,2436
2018-06-16T04:58:31.676Z,2492
2018-06-16T04:59:12.246Z,2552
2018-06-16T04:59:52.805Z,2612
2018-06-16T05:00:33.364Z,2668
2018-06-16T05:01:13.906Z,2704
2018-06-16T05:01:54.465Z,2728
2018-06-16T05:02:35.035Z,2740
2018-06-16T05:03:15.584Z,2740
2018-06-16T05:03:56.134Z,2736
2018-06-16T05:04:36.706Z,2732
2018-06-16T05:05:17.266Z,2732
2018-06-16T05:05:57.830Z,2736
2018-06-16T05:06:38.394Z,2740
2018-06-16T05:07:18.931Z,2752
2018-06-16T05:07:59.501Z,2764
2018-06-16T05:08:40.158Z,2772
2018-06-16T05:09:20.719Z,2768
2018-06-16T05:10:01.285Z,2756
2018-06-16T05:10:41.866Z,2736
2018-06-16T05:11:22.426Z,2732
2018-06-16T05:12:02.991Z,2752
2018-06-16T05:12:43.553Z,2796
2018-06-16T05:13:24.139Z,2852
2018-06-16T05:14:04.750Z,2932
2018-06-16T05:14:45.286Z,3020
2018-06-16T05:15:25.843Z,3120
2018-06-16T05:16:06.400Z,3164
2018-06-16T05:16:46.955Z,3204
2018-06-16T05:17:27.506Z,3252
2018-06-16T05:18:08.085Z,3356
2018-06-16T05:20:36.654Z,3740
2018-06-16T05:21:17.221Z,3860
2018-06-16T05:21:57.801Z,3932
2018-06-16T05:22:38.358Z,4088
2018-06-16T05:23:18.924Z,4280
2018-06-16T05:23:59.497Z,4476
2018-06-16T05:24:40.065Z,4320
2018-06-16T05:25:20.646Z,4356
2018-06-16T05:26:01.224Z,4464
2018-06-16T05:26:41.744Z,4436
2018-06-16T05:27:22.314Z,4552
2018-06-16T05:28:02.864Z,4660
2018-06-16T05:28:43.419Z,4760
2018-06-16T05:29:23.979Z,4800
2018-06-16T05:31:52.782Z,5056
2018-06-16T05:32:33.345Z,5216
2018-06-16T05:33:13.893Z,7372
2018-06-16T05:33:54.470Z,7268
2018-06-16T05:34:35.026Z,5660
2018-06-16T05:35:15.592Z,5728
2018-06-16T05:35:56.185Z,5732
2018-06-16T05:36:36.748Z,5788
2018-06-16T05:37:17.329Z,5924
2018-06-16T05:37:57.858Z,6016
2018-06-16T05:38:38.447Z,6084
2018-06-16T05:39:18.996Z,6156
2018-06-16T05:39:59.557Z,6292
2018-06-16T05:40:40.086Z,6456
2018-06-16T05:41:20.637Z,6664
2018-06-16T05:42:01.189Z,6900
2018-06-16T05:42:41.769Z,7160
2018-06-16T05:43:22.337Z,7400
2018-06-16T05:44:02.901Z,7528
2018-06-16T05:44:43.492Z,7720
2018-06-16T05:45:24.042Z,7972
2018-06-16T05:46:04.622Z,8300
2018-06-16T05:46:45.185Z,8372
2018-06-16T05:47:25.756Z,8336
2018-06-16T05:48:06.323Z,7992
2018-06-16T05:48:46.878Z,7848
2018-06-16T05:49:27.416Z,7904
2018-06-16T05:50:07.968Z,8368
2018-06-16T05:50:48.529Z,7988
2018-06-16T05:51:29.100Z,7624
2018-06-16T05:52:09.670Z,7256
2018-06-16T05:52:50.221Z,6984
2018-06-16T05:53:30.820Z,6776
2018-06-16T05:54:11.387Z,6564
2018-06-16T05:54:51.948Z,6332
2018-06-16T05:55:32.531Z,6100
2018-06-16T05:56:13.053Z,5920
2018-06-16T05:56:53.597Z,5848
2018-06-16T05:57:34.209Z,5880
2018-06-16T05:58:14.736Z,6004
2018-06-16T05:58:55.296Z,6212
2018-06-16T05:59:35.869Z,6520
2018-06-16T06:00:16.638Z,6748
2018-06-16T06:00:57.129Z,7112
2018-06-16T06:01:37.701Z,7060
2018-06-16T06:02:18.261Z,7088
2018-06-16T06:02:58.812Z,7084
2018-06-16T06:03:39.408Z,7200
2018-06-16T06:04:20.410Z,7404
2018-06-16T06:05:01.380Z,7376
2018-06-16T06:05:42.090Z,6808
2018-06-16T06:06:22.659Z,6524
2018-06-16T06:07:03.221Z,6276
2018-06-16T06:07:43.791Z,6016
2018-06-16T06:08:24.390Z,5768
2018-06-16T06:09:04.961Z,5572
2018-06-16T06:09:45.507Z,5448
2018-06-16T06:10:28.906Z,5412
2018-06-16T06:11:09.375Z,5480
2018-06-16T06:11:54.690Z,5692
2018-06-16T06:12:35.263Z,6016
2018-06-16T06:13:15.997Z,6144
2018-06-16T06:13:56.654Z,5872
2018-06-16T06:14:37.391Z,5572
2018-06-16T06:15:18.479Z,5240
2018-06-16T06:15:59.272Z,4960
2018-06-16T06:16:39.834Z,4760
2018-06-16T06:17:20.400Z,4672
2018-06-16T06:18:01.336Z,4652
2018-06-16T06:18:41.889Z,4648
2018-06-16T06:19:22.518Z,4648
2018-06-16T06:20:03.090Z,4672
2018-06-16T06:20:43.645Z,4732
2018-06-16T06:21:24.510Z,4832
2018-06-16T06:22:05.553Z,4968
2018-06-16T06:22:46.483Z,5140
2018-06-16T06:23:28.003Z,5320
2018-06-16T06:24:08.927Z,5468
2018-06-16T06:24:49.606Z,5504
2018-06-16T06:25:30.329Z,5460
2018-06-16T06:26:10.901Z,5344
2018-06-16T06:26:51.471Z,5204
2018-06-16T06:27:32.050Z,5092
2018-06-16T06:28:12.613Z,5004
2018-06-16T06:28:53.265Z,4928
2018-06-16T06:29:33.841Z,4848
2018-06-16T06:30:14.776Z,4764
2018-06-16T06:30:55.510Z,4696
2018-06-16T06:31:36.547Z,4664
2018-06-16T06:32:17.096Z,4668
2018-06-16T06:32:57.660Z,4716
2018-06-16T06:33:38.277Z,4804
2018-06-16T06:34:19.175Z,4912
2018-06-16T06:35:00.073Z,5040
2018-06-16T06:35:41.270Z,5172
2018-06-16T06:36:21.871Z,5276
2018-06-16T06:37:03.205Z,5352
2018-06-16T06:37:43.925Z,5384
2018-06-16T06:38:24.596Z,5412
2018-06-16T06:39:05.390Z,5436
2018-06-16T06:39:46.565Z,5476
2018-06-16T06:40:26.746Z,5516
2018-06-16T06:41:07.328Z,5560
2018-06-16T06:41:47.880Z,5600
2018-06-16T06:42:28.598Z,5640
2018-06-16T06:43:09.669Z,5680
2018-06-16T06:43:50.578Z,5732
2018-06-16T06:44:31.473Z,5808
2018-06-16T06:45:12.360Z,5888
2018-06-16T06:45:53.476Z,5980
2018-06-16T06:46:34.397Z,6156
2018-06-16T06:47:15.984Z,6396
2018-06-16T06:47:56.941Z,6660
2018-06-16T06:48:38.539Z,6940
2018-06-16T06:49:19.365Z,7264
2018-06-16T06:50:00.351Z,7676
2018-06-16T06:50:41.938Z,8084
2018-06-16T06:51:22.938Z,9188
2018-06-16T06:52:04.026Z,8588
2018-06-16T06:52:45.092Z,8448
2018-06-16T06:53:26.152Z,8392
2018-06-16T06:54:07.189Z,8492
2018-06-16T06:54:48.213Z,8644
2018-06-16T06:55:29.026Z,8832
2018-06-16T06:56:09.584Z,9080
2018-06-16T06:56:50.159Z,8868
2018-06-16T06:57:30.713Z,8840
2018-06-16T06:58:11.267Z,8820
2018-06-16T06:58:51.868Z,8800
2018-06-16T06:59:32.441Z,8740
2018-06-16T07:00:13.022Z,8712
2018-06-16T07:00:53.602Z,8724
2018-06-16T07:01:34.247Z,8692
2018-06-16T07:02:15.105Z,8700
2018-06-16T07:02:55.760Z,8788
2018-06-16T07:03:36.588Z,8756
2018-06-16T07:04:17.149Z,8524
2018-06-16T07:04:57.743Z,8356
2018-06-16T07:05:38.405Z,8288
2018-06-16T07:06:18.977Z,8188
2018-06-16T07:06:59.533Z,8020
2018-06-16T07:07:40.186Z,7836
2018-06-16T07:08:20.793Z,7676
2018-06-16T07:09:01.639Z,7544
2018-06-16T07:09:42.624Z,7380
2018-06-16T07:10:23.240Z,7200
2018-06-16T07:11:03.866Z,7020
2018-06-16T07:11:44.445Z,6880
2018-06-16T07:12:25.493Z,6824
2018-06-16T07:13:06.138Z,6804
2018-06-16T07:13:46.904Z,6836
2018-06-16T07:14:27.465Z,6876
2018-06-16T07:15:08.035Z,6964
2018-06-16T07:15:48.612Z,7112
2018-06-16T07:16:29.168Z,7312
2018-06-16T07:17:09.770Z,7560
2018-06-16T07:17:50.321Z,7792
2018-06-16T07:18:30.888Z,8048
2018-06-16T07:19:11.516Z,8288
2018-06-16T07:19:52.235Z,8544
2018-06-16T07:20:33.278Z,9096
2018-06-16T07:21:14.319Z,9336
2018-06-16T07:21:55.376Z,9484
2018-06-16T07:22:36.502Z,9396
2018-06-16T07:23:18.153Z,9352
2018-06-16T07:23:59.368Z,9072
2018-06-16T07:24:40.341Z,8920
2018-06-16T07:25:21.345Z,8744
2018-06-16T07:26:02.239Z,8580
2018-06-16T07:26:43.305Z,8460
2018-06-16T07:27:24.263Z,8468
2018-06-16T07:28:05.494Z,8672
2018-06-16T07:28:46.508Z,9000
2018-06-16T07:29:27.446Z,9368
2018-06-16T07:30:08.320Z,10104
2018-06-16T07:30:50.193Z,12392
2018-06-16T07:31:31.101Z,15880
2018-06-16T07:32:12.032Z,19680
2018-06-16T07:32:52.917Z,12996
2018-06-16T07:33:34.700Z,12164
2018-06-16T07:34:15.491Z,12016
2018-06-16T07:34:56.351Z,12500
2018-06-16T07:35:37.292Z,14160
2018-06-16T07:36:18.308Z,25952
2018-06-16T07:36:59.219Z,19904
2018-06-16T07:37:40.231Z,16144
2018-06-16T07:38:21.469Z,15256
2018-06-16T07:39:02.438Z,14356
2018-06-16T07:39:43.557Z,13704
2018-06-16T07:40:24.659Z,14032
2018-06-16T07:41:05.730Z,13968
2018-06-16T07:41:46.855Z,13304
2018-06-16T07:42:27.885Z,13728
2018-06-16T07:43:08.899Z,13988
2018-06-16T07:43:49.948Z,13968
2018-06-16T07:44:30.903Z,14304
2018-06-16T07:45:11.843Z,14768
2018-06-16T07:45:52.918Z,15768
2018-06-16T07:46:34.028Z,18464
2018-06-16T07:47:15.160Z,20608
2018-06-16T07:47:56.142Z,25824
2018-06-16T07:48:37.132Z,18816
2018-06-16T07:49:18.183Z,16992
2018-06-16T07:49:59.236Z,18208
2018-06-16T07:50:40.300Z,18304
2018-06-16T07:51:21.342Z,47360
2018-06-16T07:52:02.410Z,46624
2018-06-16T07:52:43.436Z,48736
2018-06-16T07:53:24.547Z,41824
2018-06-16T07:54:05.555Z,42336
2018-06-16T07:54:46.637Z,30944
2018-06-16T07:55:27.749Z,37952
2018-06-16T07:56:08.869Z,27392
2018-06-16T07:56:49.975Z,28256
2018-06-16T07:57:31.008Z,30624
2018-06-16T07:58:12.077Z,25056
2018-06-16T07:58:53.109Z,25024
2018-06-16T07:59:34.197Z,24544
2018-06-16T08:00:15.252Z,27680
2018-06-16T08:00:56.281Z,24416
2018-06-16T08:01:37.350Z,20736
2018-06-16T08:02:18.270Z,20672
2018-06-16T08:02:59.335Z,20928
2018-06-16T08:03:40.427Z,20800
2018-06-16T08:06:08.565Z,22176
2018-06-16T08:06:49.117Z,22016
2018-06-16T08:08:46.796Z,21312
2018-06-16T08:09:27.350Z,20864
2018-06-16T08:10:07.917Z,20960
2018-06-16T08:10:48.491Z,20448
2018-06-16T08:11:29.023Z,20096
2018-06-16T08:12:09.601Z,19488
2018-06-16T08:12:50.164Z,20320
2018-06-16T08:13:30.720Z,20160
2018-06-16T08:14:11.295Z,20128
2018-06-16T08:14:51.853Z,19840
2018-06-16T08:15:32.510Z,20032
2018-06-16T08:16:13.068Z,22016
2018-06-16T08:16:53.638Z,22464
2018-06-16T08:17:34.205Z,22624
2018-06-16T08:18:14.757Z,19968
2018-06-16T08:18:55.311Z,19936
2018-06-16T08:19:35.881Z,19168
2018-06-16T08:20:16.464Z,19008
2018-06-16T08:20:57.042Z,18336
2018-06-16T08:21:37.616Z,17856
2018-06-16T08:22:18.183Z,18208
2018-06-16T08:22:58.813Z,17632
2018-06-16T08:23:39.349Z,17408
2018-06-16T08:24:19.893Z,17440
2018-06-16T08:25:00.444Z,17216
2018-06-16T08:25:41.015Z,17440
2018-06-16T08:26:21.570Z,17120
2018-06-16T08:27:02.124Z,16960
2018-06-16T08:27:42.673Z,16864
2018-06-16T08:28:23.219Z,16864
2018-06-16T08:29:03.840Z,18944
2018-06-16T08:29:44.862Z,17280
2018-06-16T08:30:25.965Z,16992
2018-06-16T08:31:06.705Z,17088
2018-06-16T08:31:47.277Z,17120
2018-06-16T08:32:27.872Z,17152
2018-06-16T08:33:08.825Z,17344
2018-06-16T08:33:49.613Z,18080
2018-06-16T08:34:30.439Z,17984
2018-06-16T08:35:10.968Z,17120
2018-06-16T08:35:51.769Z,16800
2018-06-16T08:36:32.413Z,16576
2018-06-16T08:37:13.178Z,16384
2018-06-16T08:37:54.045Z,16320
2018-06-16T08:38:34.615Z,16512
2018-06-16T08:39:15.222Z,15968
2018-06-16T08:39:55.828Z,15980
2018-06-16T08:40:36.395Z,16224
2018-06-16T08:41:16.947Z,15756
2018-06-16T08:41:57.533Z,15736
2018-06-16T08:42:38.114Z,15800
2018-06-16T08:43:18.686Z,15592
2018-06-16T08:43:59.211Z,15704
2018-06-16T08:44:39.799Z,15520
2018-06-16T08:45:20.365Z,15404
2018-06-16T08:46:00.971Z,15260
2018-06-16T08:46:41.542Z,15452
2018-06-16T08:47:22.124Z,15056
2018-06-16T08:48:02.695Z,14924
2018-06-16T08:48:43.293Z,14824
2018-06-16T08:49:23.847Z,14764
2018-06-16T08:50:04.505Z,14640
2018-06-16T08:50:45.075Z,14840
2018-06-16T08:51:25.656Z,15368
2018-06-16T08:52:06.240Z,15968
2018-06-16T08:52:46.846Z,15368
2018-06-16T08:53:27.456Z,15080
2018-06-16T08:54:08.027Z,14856
2018-06-16T08:54:48.579Z,14896
2018-06-16T08:55:29.219Z,14612
2018-06-16T08:56:09.721Z,14652
2018-06-16T08:56:50.280Z,14504
2018-06-16T08:57:30.837Z,14476
2018-06-16T08:58:11.405Z,14452
2018-06-16T08:58:51.994Z,14376
2018-06-16T08:59:32.575Z,14504
2018-06-16T09:00:13.205Z,14244
2018-06-16T09:00:53.770Z,13904
2018-06-16T09:01:34.429Z,13756
2018-06-16T09:02:14.986Z,13612
2018-06-16T09:02:55.544Z,13532
2018-06-16T09:03:36.109Z,13412
2018-06-16T09:04:17.137Z,13312
2018-06-16T09:04:58.104Z,13264
2018-06-16T09:05:39.035Z,13116
2018-06-16T09:06:19.669Z,13120
2018-06-16T09:07:00.237Z,12956
2018-06-16T09:07:40.797Z,12956
2018-06-16T09:08:21.485Z,13040
2018-06-16T09:09:02.461Z,13164
2018-06-16T09:09:43.218Z,13396
2018-06-16T09:10:23.818Z,12912
2018-06-16T09:11:04.388Z,12956
2018-06-16T09:11:44.958Z,13164
2018-06-16T09:12:25.679Z,12452
2018-06-16T09:13:06.686Z,12144
2018-06-16T09:13:47.565Z,11788
2018-06-16T09:14:28.165Z,11504
2018-06-16T09:15:08.848Z,11436
2018-06-16T09:15:49.676Z,11244
2018-06-16T09:16:30.390Z,11940
2018-06-16T09:17:11.043Z,11072
2018-06-16T09:17:51.559Z,10880
2018-06-16T09:18:32.415Z,10744
2018-06-16T09:19:13.249Z,10680
2018-06-16T09:19:53.809Z,10688
2018-06-16T09:20:34.609Z,10432
2018-06-16T09:21:15.268Z,10392
2018-06-16T09:21:55.859Z,9976
2018-06-16T09:22:36.554Z,9792
2018-06-16T09:23:17.236Z,9796
2018-06-16T09:23:57.994Z,9680
2018-06-16T09:24:38.575Z,9932
2018-06-16T09:25:19.148Z,9420
2018-06-16T09:25:59.740Z,10092
2018-06-16T09:26:40.469Z,9780
2018-06-16T09:27:21.090Z,9404
2018-06-16T09:28:01.707Z,9240